Date,TemperatureHighF,TemperatureAvgF,TemperatureLowF,DewpointHighF,DewpointAvgF,DewpointLowF,HumidityHigh,HumidityAvg,HumidityLow,PressureMaxIn,PressureMinIn,WindSpeedMaxMPH,WindSpeedAvgMPH,GustSpeedMaxMPH,PrecipitationSumIn
2013-1-13,58.8,57.9,57.6,57.1,56.9,56.7,98,96,94,29.93,29.83,4,2,9,0.52
2013-1-15,31.2,31.2,31.2,25.7,25.7,25.7,80,80,80,30.14,30.14,3,3,3,0.00
2013-1-16,35.9,32.0,29.7,29.9,28.6,27.2,94,87,76,30.09,29.99,3,1,4,0.00
2013-1-17,43.4,34.0,28.2,32.0,28.1,23.5,94,80,59,30.34,30.10,5,2,8,0.00
2013-1-19,45.6,45.3,44.9,31.5,31.3,31.0,58,58,57,29.96,29.95,3,3,3,0.00
2013-1-20,45.8,34.8,27.0,36.0,18.8,9.5,73,52,36,30.23,29.95,8,4,12,0.00
2013-1-21,27.1,14.6,13.3,17.5,-23.9,-99.9,75,41,47,30.24,30.10,7,-294,12,0.00
2013-1-22,19.3,10.0,7.6,3.1,-28.7,-99.9,80,39,41,30.38,30.24,5,-290,7,0.00
2013-1-23,23.5,20.6,15.0,11.9,5.7,-99.9,68,57,54,30.34,30.09,2,-32,4,0.00
2013-1-24,24.0,14.4,15.0,13.1,-26.7,-99.9,70,35,38,30.57,30.10,5,-296,5,0.00
2013-1-25,26.1,15.6,19.9,21.9,-21.5,-99.9,90,54,59,30.42,30.05,3,-339,3,0.00
2013-1-26,32.7,21.7,17.4,21.0,1.5,-99.9,94,66,59,30.42,30.13,3,-145,5,0.00
2013-1-27,39.1,30.1,20.6,37.6,24.2,17.1,95,79,59,30.42,30.17,3,2,5,0.24
2013-1-28,53.2,47.9,39.1,51.8,45.9,38.1,97,93,81,30.16,30.04,3,1,3,0.17
2013-1-29,63.8,59.1,52.1,59.2,55.0,50.4,95,87,79,30.06,29.61,5,2,9,0.00
2013-1-30,66.6,52.9,32.7,60.3,49.2,25.6,98,88,75,29.57,29.30,8,4,12,0.75
2013-1-31,32.1,24.4,17.4,25.1,9.0,-99.9,91,68,57,30.04,29.59,22,-83,22,0.00
2013-2-1,19.7,12.6,6.5,11.8,5.0,0.1,86,71,58,30.41,30.04,20,3,20,0.00
2013-2-2,32.5,23.7,10.7,27.6,19.9,7.3,91,85,76,30.32,29.99,4,2,6,0.03
2013-2-3,28.1,22.3,14.1,23.6,18.1,12.0,91,84,75,30.12,29.94,4,2,7,0.00
2013-2-4,34.3,25.6,11.4,33.5,20.7,-99.9,97,87,72,30.11,29.82,3,-21,5,0.01
2013-2-5,38.4,34.4,27.2,33.8,31.3,25.4,98,88,80,30.00,29.84,3,1,3,0.13
2013-2-6,38.1,34.5,28.3,33.1,29.3,26.0,91,81,73,30.25,30.01,3,1,5,0.00
2013-2-7,62.1,44.4,31.8,39.2,33.9,28.1,87,69,40,30.18,29.81,3,1,5,0.00
2013-2-8,52.0,41.0,34.3,45.9,36.7,30.0,94,85,62,30.10,29.80,8,5,11,0.06
2013-2-9,42.3,36.8,32.0,22.3,20.9,19.0,66,53,39,30.30,30.21,3,1,5,0.00
2013-2-10,56.8,43.9,33.1,46.3,32.1,21.6,92,64,41,30.21,29.79,7,3,13,0.02
2013-2-11,52.3,47.3,37.3,50.4,37.2,28.9,95,69,49,30.05,29.77,9,4,13,0.01
2013-2-12,49.6,30.2,27.7,29.3,-2.6,-99.9,88,48,39,30.14,29.91,2,-233,4,0.00
2013-2-13,36.8,31.5,26.7,31.9,28.6,25.2,95,89,82,29.90,29.76,3,1,4,0.05
2013-2-14,54.3,41.1,29.4,39.6,34.4,27.9,96,79,54,30.00,29.83,5,2,8,0.01
2013-2-15,42.5,33.6,26.8,32.6,27.5,21.7,95,79,57,30.15,29.99,7,2,10,0.00
2013-2-16,28.8,22.7,15.6,21.4,15.7,10.9,95,75,53,30.14,30.04,6,2,9,0.00
2013-2-17,33.0,22.0,11.9,15.4,11.0,7.0,92,65,33,30.23,30.10,3,1,4,0.00
2013-2-18,60.1,36.9,23.5,41.0,4.0,-99.9,85,43,43,30.19,29.75,5,-193,12,0.08
2013-2-19,45.1,33.5,24.9,41.6,26.7,15.0,95,76,60,30.11,29.67,9,5,12,0.15
2013-2-20,29.8,17.4,19.5,15.8,-19.1,-99.9,78,46,52,30.29,30.12,6,-289,7,0.00
2013-2-21,32.2,20.6,17.3,26.6,-10.2,-99.9,88,56,64,30.33,30.03,6,-253,6,0.03
2013-2-22,44.8,35.9,29.7,40.0,33.6,27.3,98,91,83,30.05,29.87,4,2,4,0.05
2013-2-23,44.9,35.9,30.9,32.7,28.5,25.3,97,76,51,30.00,29.90,3,1,6,0.00
2013-2-24,42.7,25.5,25.5,26.8,-4.5,-99.9,90,55,52,30.14,29.94,4,-233,6,0.00
2013-2-25,45.5,29.4,24.8,27.7,-4.1,-99.9,88,46,47,30.16,29.89,5,-231,7,0.00
2013-2-26,50.0,32.6,37.4,48.9,5.1,-99.9,96,66,56,29.89,29.36,8,-248,10,0.82
2013-2-27,40.9,36.8,33.2,39.3,34.2,30.3,95,90,81,29.73,29.52,5,2,7,0.05
2013-2-28,36.3,34.2,32.0,33.5,31.6,29.3,94,90,87,29.95,29.70,4,3,8,0.01
2013-3-1,36.0,33.4,30.8,34.3,31.7,26.2,97,94,83,30.03,29.93,3,1,4,0.09
2013-3-2,30.2,27.9,26.1,25.1,22.8,21.4,86,81,76,30.08,30.01,4,2,6,0.00
2013-3-3,31.7,27.7,17.8,23.8,20.3,15.6,91,74,61,30.09,30.04,6,2,6,0.00
2013-3-4,42.7,30.0,13.4,26.8,20.7,11.8,95,71,46,30.17,29.98,3,1,6,0.00
2013-3-5,40.2,32.8,29.9,37.5,18.2,-99.9,97,75,59,30.00,29.57,6,-102,7,0.36
2013-3-6,32.5,30.1,28.0,29.5,28.3,26.7,97,93,88,30.25,29.66,6,3,11,0.00
2013-3-7,37.6,33.1,30.1,32.3,29.6,27.3,95,87,75,30.37,30.24,2,0,3,0.16
2013-3-8,44.3,33.7,21.8,28.7,25.7,20.8,97,75,48,30.46,30.36,3,1,4,0.01
2013-3-9,58.3,43.9,29.8,36.3,31.8,26.3,89,65,42,30.36,30.04,6,2,9,0.00
2013-3-10,69.3,44.3,53.7,44.8,-1.0,-99.9,66,30,31,30.03,29.83,4,-277,8,0.05
2013-3-11,57.5,48.3,37.9,52.8,45.2,33.2,96,89,60,29.86,29.62,6,3,8,1.42
2013-3-12,46.6,38.6,34.0,33.2,30.0,26.5,88,72,51,30.05,29.86,6,3,7,0.00
2013-3-13,33.7,29.4,26.2,31.9,21.5,-99.9,96,77,61,30.31,30.01,6,-18,9,0.00
2013-3-14,45.2,28.1,20.2,26.1,-4.0,-99.9,95,47,33,30.35,30.18,3,-207,7,0.01
2013-3-15,55.1,34.5,29.8,40.4,4.8,-99.9,92,56,56,30.17,29.78,3,-228,4,0.00
2013-3-16,63.7,42.1,39.4,52.8,20.1,-99.9,96,66,65,30.00,29.63,8,-164,11,0.18
2013-3-17,39.0,26.4,33.4,34.9,-0.9,-99.9,95,66,80,30.12,29.97,5,-247,8,0.19
2013-3-18,50.6,38.3,34.1,48.7,28.3,-99.9,98,85,77,29.97,29.61,5,-81,10,0.89
2013-3-19,45.1,29.1,28.6,33.6,-7.2,-99.9,90,41,31,30.11,29.84,8,-230,16,0.00
2013-3-20,38.2,26.3,23.8,22.7,-5.1,-99.9,79,44,43,30.11,29.95,7,-188,11,0.00
2013-3-21,32.7,21.4,20.0,17.8,-7.9,-99.9,83,48,43,30.03,29.94,4,-186,9,0.00
2013-3-22,47.2,26.7,17.0,22.9,-6.3,-99.9,94,45,31,30.07,29.97,3,-208,6,0.00
2013-3-23,60.4,33.9,28.4,37.8,-5.4,-99.9,79,38,35,30.06,29.93,3,-255,3,0.01
2013-3-24,60.3,56.0,57.7,39.2,29.4,-99.9,47,40,39,29.86,29.40,0,-48,0,0.00